Time;durP1;ratioP1;P1;durP2;ratioP2;P2;SDS_P1;SDS_P2;PMS_P1;PMS_P2;Temp;Humidity;BMP_temperature;BMP_pressure;BME280_temperature;BME280_humidity;BME280_pressure;Samples;Min_cycle;Max_cycle;Signal;HPM_P1;HPM_P2
2020/12/05 00:02:32;;;;;;;3.58;3.28;;;8.10;99.90;;;;;;4931154;28;20183;-79
2020/12/05 00:05:11;;;;;;;4.25;3.38;;;8.10;99.90;;;;;;4946020;28;20249;-79
2020/12/05 00:08:28;;;;;;;4.40;2.97;;;8.10;99.90;;;;;;4943180;28;20171;-79
2020/12/05 00:11:55;;;;;;;;;;;;;;;;;;;;;
2020/12/05 00:14:46;;;;;;;;;;;;;;;;;;;;;
2020/12/05 00:18:02;;;;;;;3.42;3.13;;;8.10;99.90;;;;;;4939498;28;20191;-79
2020/12/05 00:20:57;;;;;;;4.68;3.42;;;8.10;99.90;;;;;;4931463;28;20213;-79
2020/12/05 00:23:47;;;;;;;3.53;3.22;;;8.00;99.90;;;;;;4939290;28;20183;-79
2020/12/05 00:26:30;;;;;;;3.63;3.03;;;7.90;99.90;;;;;;4924449;28;20276;-79
2020/12/05 00:29:15;;;;;;;4.10;3.70;;;8.00;99.90;;;;;;4939324;28;20226;-78
2020/12/05 00:32:23;;;;;;;3.95;3.53;;;7.90;99.90;;;;;;4924405;28;20553;-78
2020/12/05 00:35:28;;;;;;;;;;;;;;;;;;;;;
2020/12/05 00:38:06;;;;;;;4.20;3.35;;;7.90;99.90;;;;;;4936145;28;20184;-78
2020/12/05 00:40:53;;;;;;;6.38;4.63;;;7.90;99.90;;;;;;4923363;28;20206;-78
2020/12/05 00:43:31;;;;;;;4.82;4.43;;;7.90;99.90;;;;;;4923011;28;20607;-78
2020/12/05 00:46:07;;;;;;;4.50;4.10;;;7.90;99.90;;;;;;4923839;28;20204;-78
2020/12/05 00:48:50;;;;;;;5.00;4.05;;;7.90;99.90;;;;;;4924117;28;20187;-79
2020/12/05 00:51:38;;;;;;;5.85;5.30;;;7.90;99.90;;;;;;4938160;28;20187;-79
2020/12/05 00:54:28;;;;;;;6.07;5.50;;;8.00;99.90;;;;;;4954425;28;20294;-80
2020/12/05 00:57:12;;;;;;;5.82;5.25;;;8.00;99.90;;;;;;4934678;28;20218;-78
2020/12/05 00:59:55;;;;;;;6.28;5.78;;;8.00;99.90;;;;;;4968317;28;20551;-78
2020/12/05 01:02:41;;;;;;;5.93;5.38;;;7.90;99.90;;;;;;5003246;28;20179;-79
2020/12/05 01:05:16;;;;;;;6.53;5.93;;;7.90;99.90;;;;;;5002299;28;20203;-78
2020/12/05 01:08:18;;;;;;;6.55;5.95;;;7.90;99.90;;;;;;4969904;28;20709;-78
2020/12/05 01:11:44;;;;;;;5.93;5.43;;;7.90;99.90;;;;;;5002631;28;20183;-78
2020/12/05 01:14:41;;;;;;;5.72;5.13;;;7.90;99.90;;;;;;4941311;28;20211;-78
2020/12/05 01:21:15;;;;;;;7.18;5.72;;;7.90;99.90;;;;;;4927817;28;20187;-79
2020/12/05 01:24:01;;;;;;;5.93;5.38;;;8.00;99.90;;;;;;5000238;28;20180;-78
2020/12/05 01:27:14;;;;;;;5.60;5.10;;;7.90;99.90;;;;;;4969045;28;20210;-78
2020/12/05 01:29:55;;;;;;;6.15;5.55;;;7.90;99.90;;;;;;5002578;28;20213;-78
2020/12/05 01:32:56;;;;;;;5.63;5.13;;;7.90;99.90;;;;;;4959050;28;20175;-78
2020/12/05 01:35:52;;;;;;;5.80;5.15;;;7.90;99.90;;;;;;4938674;28;20211;-80
2020/12/05 01:38:43;;;;;;;7.07;6.15;;;7.90;99.90;;;;;;4971176;28;20182;-78
2020/12/05 01:41:40;;;;;;;8.68;6.43;;;7.90;99.90;;;;;;4955097;28;20646;-78
2020/12/05 01:45:04;;;;;;;6.60;5.90;;;8.00;99.90;;;;;;5002649;28;20250;-78
2020/12/05 01:48:26;;;;;;;5.68;5.07;;;8.10;99.90;;;;;;5002475;28;20186;-78
2020/12/05 01:51:12;;;;;;;5.15;4.65;;;8.10;99.90;;;;;;4986614;28;20221;-78
2020/12/05 01:53:54;;;;;;;9.02;8.02;;;8.10;99.90;;;;;;4986355;28;20207;-78
2020/12/05 01:56:36;;;;;;;7.50;6.40;;;8.10;99.90;;;;;;4987754;28;20207;-78
2020/12/05 01:59:11;;;;;;;9.05;8.13;;;8.10;99.90;;;;;;5006215;28;20266;-78
2020/12/05 02:02:15;;;;;;;8.00;7.25;;;8.00;99.90;;;;;;4972640;28;20191;-78
2020/12/05 02:05:39;;;;;;;7.85;6.93;;;8.00;99.90;;;;;;4960448;28;20320;-78
2020/12/05 02:08:34;;;;;;;8.85;7.97;;;8.00;99.90;;;;;;5005193;28;20184;-78
2020/12/05 02:11:32;;;;;;;9.32;8.05;;;8.00;99.90;;;;;;4974870;28;20211;-78
2020/12/05 02:14:22;;;;;;;7.82;7.13;;;8.00;99.90;;;;;;4972303;28;20208;-78
2020/12/05 02:17:05;;;;;;;9.80;8.73;;;7.90;99.90;;;;;;4973296;28;20196;-77
2020/12/05 02:19:49;;;;;;;8.02;7.20;;;7.90;99.90;;;;;;5005807;28;20186;-78
2020/12/05 02:22:44;;;;;;;8.23;7.43;;;8.00;99.90;;;;;;4990027;28;20256;-78
2020/12/05 02:26:06;;;;;;;8.70;7.05;;;7.90;99.90;;;;;;4962645;28;20282;-78
2020/12/05 02:29:34;;;;;;;8.13;7.32;;;8.00;99.90;;;;;;4973106;28;20188;-78
2020/12/05 02:32:44;;;;;;;8.80;7.90;;;7.90;99.90;;;;;;4943311;28;20178;-78
2020/12/05 02:35:27;;;;;;;10.35;9.30;;;7.90;99.90;;;;;;4957243;28;20215;-78
2020/12/05 02:38:55;;;;;;;9.15;8.23;;;7.90;99.90;;;;;;4989237;28;20175;-78
2020/12/05 02:41:54;;;;;;;9.00;8.10;;;7.90;99.90;;;;;;4914244;29;20273;-78
2020/12/05 02:45:13;;;;;;;9.45;8.55;;;7.90;99.90;;;;;;4894930;29;20182;-78
2020/12/05 02:48:26;;;;;;;9.98;8.95;;;7.80;99.90;;;;;;4986399;28;20238;-78
2020/12/05 02:51:12;;;;;;;9.32;8.43;;;7.80;99.90;;;;;;4993691;28;20188;-78
2020/12/05 02:54:36;;;;;;;;;;;;;;;;;;;;;
2020/12/05 02:57:20;;;;;;;8.60;7.70;;;7.80;99.90;;;;;;5023941;28;20199;-78
2020/12/05 02:59:59;;;;;;;9.27;8.38;;;7.80;99.90;;;;;;5008065;28;20206;-78
2020/12/05 03:02:50;;;;;;;10.13;9.00;;;7.80;99.90;;;;;;5006292;28;20183;-78
2020/12/05 03:05:43;;;;;;;12.25;10.10;;;7.80;99.90;;;;;;4956789;28;20192;-78
2020/12/05 03:08:15;;;;;;;12.95;11.43;;;7.80;99.90;;;;;;4941716;28;20168;-78
2020/12/05 03:15:20;;;;;;;11.10;8.02;;;7.80;99.90;;;;;;4944386;28;20326;-78
2020/12/05 03:18:32;;;;;;;11.45;9.80;;;7.80;99.90;;;;;;4956904;28;20235;-78
2020/12/05 03:21:11;;;;;;;11.40;10.10;;;7.80;99.90;;;;;;4957274;28;20172;-77
2020/12/05 03:23:54;;;;;;;11.25;10.05;;;7.70;99.90;;;;;;4959929;28;20183;-77
2020/12/05 03:26:52;;;;;;;13.77;12.52;;;7.70;99.90;;;;;;4957074;28;20195;-77
2020/12/05 03:29:37;;;;;;;11.05;9.90;;;7.70;99.90;;;;;;4955647;28;20195;-77
2020/12/05 03:32:59;;;;;;;11.25;8.60;;;7.70;99.90;;;;;;4953736;28;20198;-78
2020/12/05 03:36:11;;;;;;;11.68;9.65;;;7.70;99.90;;;;;;4958654;28;20203;-77
2020/12/05 03:38:52;;;;;;;12.48;9.65;;;7.70;99.90;;;;;;4940802;28;20199;-78
2020/12/05 03:41:31;;;;;;;10.60;9.25;;;7.70;99.90;;;;;;4941133;28;20672;-78
2020/12/05 03:44:32;;;;;;;12.15;10.85;;;7.80;99.90;;;;;;4971049;28;20183;-78
2020/12/05 03:47:09;;;;;;;15.20;11.25;;;7.70;99.90;;;;;;4940169;28;20207;-78
2020/12/05 03:49:49;;;;;;;12.27;10.73;;;7.70;99.90;;;;;;4936665;28;20246;-78
2020/12/05 03:53:00;;;;;;;11.70;10.50;;;7.70;99.90;;;;;;4954013;28;20286;-78
2020/12/05 03:56:04;;;;;;;12.50;9.63;;;7.60;99.90;;;;;;4955379;28;20199;-78
2020/12/05 03:58:43;;;;;;;11.60;9.73;;;7.60;99.90;;;;;;4939755;28;20179;-79
2020/12/05 04:01:26;;;;;;;10.38;9.27;;;7.60;99.90;;;;;;4943559;28;20190;-78
2020/12/05 04:04:16;;;;;;;12.07;10.80;;;7.60;99.90;;;;;;4954013;28;20254;-79
2020/12/05 04:07:20;;;;;;;10.57;9.10;;;7.60;99.90;;;;;;4954521;28;20207;-78
2020/12/05 04:10:22;;;;;;;10.60;9.38;;;7.70;99.90;;;;;;4952685;28;20176;-79
2020/12/05 04:13:08;;;;;;;15.60;11.88;;;7.80;99.90;;;;;;4924987;28;20229;-78
2020/12/05 04:15:52;;;;;;;12.80;11.40;;;7.70;99.90;;;;;;4954547;28;20222;-78
2020/12/05 04:18:25;;;;;;;13.20;11.90;;;7.60;99.90;;;;;;4954403;28;20172;-79
2020/12/05 04:21:24;;;;;;;13.45;11.50;;;7.50;99.90;;;;;;4954114;28;20171;-78
2020/12/05 04:24:28;;;;;;;;;;;;;;;;;;;;;
2020/12/05 04:27:41;;;;;;;13.57;11.48;;;7.40;99.90;;;;;;4952818;28;20283;-78
2020/12/05 04:30:36;;;;;;;12.60;11.30;;;7.40;99.90;;;;;;4971023;28;20183;-78
2020/12/05 04:33:27;;;;;;;13.77;12.35;;;7.40;99.90;;;;;;4939559;28;20274;-81
2020/12/05 04:36:30;;;;;;;14.98;12.48;;;7.40;99.90;;;;;;4954840;28;20202;-78
2020/12/05 04:39:16;;;;;;;16.88;13.75;;;7.30;99.90;;;;;;4953778;28;20190;-78
2020/12/05 04:42:30;;;;;;;13.00;11.60;;;7.30;99.90;;;;;;4953248;28;20360;-78
2020/12/05 04:48:46;;;;;;;16.10;13.38;;;7.20;99.90;;;;;;4927243;28;20188;-78
2020/12/05 04:51:33;;;;;;;16.90;12.40;;;7.20;99.90;;;;;;4953526;28;20301;-80
2020/12/05 04:55:00;;;;;;;15.10;12.52;;;7.20;99.90;;;;;;4954290;28;20213;-80
2020/12/05 04:58:33;;;;;;;15.50;13.15;;;7.10;99.90;;;;;;4939617;28;20182;-79
2020/12/05 05:01:47;;;;;;;11.48;9.95;;;7.10;99.90;;;;;;4936887;28;20202;-77
2020/12/05 05:08:05;;;;;;;;;;;;;;;;;;;;;
2020/12/05 05:11:20;;;;;;;17.67;14.10;;;7.10;99.90;;;;;;4954224;28;20171;-78
2020/12/05 05:14:16;;;;;;;11.63;10.23;;;7.00;99.90;;;;;;4955162;28;20215;-77
2020/12/05 05:17:10;;;;;;;14.07;11.60;;;7.00;99.90;;;;;;4956915;28;20199;-77
2020/12/05 05:20:18;;;;;;;13.25;10.70;;;7.00;99.90;;;;;;4940282;28;20178;-77
2020/12/05 05:23:28;;;;;;;11.13;10.00;;;7.00;99.90;;;;;;4925258;28;20183;-78
2020/12/05 05:26:47;;;;;;;10.25;9.15;;;6.90;99.90;;;;;;4931815;28;20297;-77
2020/12/05 05:33:10;;;;;;;12.30;10.95;;;7.00;99.90;;;;;;4941318;28;20689;-78
2020/12/05 05:36:18;;;;;;;12.02;10.55;;;6.90;99.90;;;;;;4955568;28;20704;-78
2020/12/05 05:39:02;;;;;;;15.43;11.80;;;6.90;99.90;;;;;;4957743;28;20669;-78
2020/12/05 05:41:56;;;;;;;11.85;10.07;;;6.90;99.90;;;;;;4958313;28;20171;-79
2020/12/05 05:44:33;;;;;;;15.13;11.85;;;6.90;99.90;;;;;;4942668;28;20190;-79
2020/12/05 05:47:33;;;;;;;18.13;15.30;;;6.80;99.90;;;;;;4956565;28;20194;-78
2020/12/05 05:50:38;;;;;;;16.73;13.70;;;6.80;99.90;;;;;;4957383;28;20183;-78
2020/12/05 05:53:23;;;;;;;15.88;11.75;;;6.70;99.90;;;;;;4961390;28;20261;-78
2020/12/05 05:56:10;;;;;;;13.52;10.73;;;6.70;99.90;;;;;;4942426;28;20319;-78
2020/12/05 05:59:30;;;;;;;14.60;10.30;;;6.70;99.90;;;;;;4958833;28;20180;-76
2020/12/05 06:03:13;;;;;;;14.20;11.63;;;6.60;99.90;;;;;;4952104;28;20186;-76
2020/12/05 06:16:00;;;;;;;;;;;;;;;;;;;;;
2020/12/05 06:19:49;;;;;;;;;;;;;;;;;;;;;
2020/12/05 06:23:22;;;;;;;;;;;;;;;;;;;;;
2020/12/05 06:27:09;;;;;;;;;;;;;;;;;;;;;
2020/12/05 06:30:36;;;;;;;;;;;;;;;;;;;;;
2020/12/05 06:34:32;;;;;;;11.55;9.02;;;6.40;99.90;;;;;;4927590;28;20181;-76
2020/12/05 06:38:10;;;;;;;;;;;;;;;;;;;;;
2020/12/05 06:42:11;;;;;;;;;;;;;;;;;;;;;
2020/12/05 06:45:31;;;;;;;13.00;10.70;;;6.60;99.90;;;;;;4896809;29;20189;-75
2020/12/05 06:48:21;;;;;;;13.57;11.82;;;6.60;99.90;;;;;;4882473;29;20182;-75
2020/12/05 06:51:08;;;;;;;12.93;10.63;;;6.50;99.90;;;;;;4903819;29;20601;-75
2020/12/05 06:53:53;;;;;;;13.57;9.85;;;6.60;99.90;;;;;;4953086;29;20208;-75
2020/12/05 06:56:55;;;;;;;12.43;10.48;;;6.60;99.90;;;;;;4937723;29;20196;-75
2020/12/05 07:00:15;;;;;;;10.02;9.00;;;6.60;99.90;;;;;;4937502;29;20188;-75
2020/12/05 07:03:27;;;;;;;12.10;10.80;;;6.70;99.90;;;;;;4943262;28;20714;-75
2020/12/05 07:11:07;;;;;;;13.18;10.13;;;6.70;99.90;;;;;;4993451;28;20189;-75
2020/12/05 07:14:51;;;;;;;10.68;8.63;;;6.70;99.90;;;;;;4972999;28;20210;-76
2020/12/05 07:18:54;;;;;;;;;;;;;;;;;;;;;
2020/12/05 07:21:30;;;;;;;8.10;7.13;;;6.90;99.90;;;;;;4975960;28;20182;-75
2020/12/05 07:24:15;;;;;;;7.82;6.93;;;7.00;99.90;;;;;;4978733;28;20202;-75
2020/12/05 07:27:34;;;;;;;7.65;6.88;;;7.10;99.90;;;;;;4975446;28;20208;-75
2020/12/05 07:30:56;;;;;;;10.15;7.65;;;7.10;99.90;;;;;;4953010;28;20315;-76
2020/12/05 07:33:51;;;;;;;7.35;6.28;;;7.10;99.90;;;;;;4966814;28;20250;-77
2020/12/05 07:36:18;;;;;;;6.63;5.80;;;7.20;99.90;;;;;;4963652;28;20196;-76
2020/12/05 07:38:47;;;;;;;6.43;5.70;;;7.30;99.90;;;;;;4999454;28;20179;-76
2020/12/05 07:41:18;;;;;;;6.15;5.55;;;7.30;99.90;;;;;;4992312;28;20177;-76
2020/12/05 07:43:46;;;;;;;6.25;5.25;;;7.40;99.90;;;;;;5008175;28;20183;-76
2020/12/05 07:46:14;;;;;;;6.35;5.68;;;7.50;99.90;;;;;;4972322;28;20195;-76
2020/12/05 07:48:41;;;;;;;4.90;4.47;;;7.50;99.90;;;;;;4988029;28;20265;-76
2020/12/05 07:51:12;;;;;;;6.13;5.28;;;7.50;99.90;;;;;;4988520;28;20183;-75
2020/12/05 07:53:38;;;;;;;4.95;4.55;;;7.60;99.90;;;;;;4987833;28;20578;-76
2020/12/05 07:56:22;;;;;;;5.35;4.50;;;7.60;99.90;;;;;;5005148;28;20223;-75
2020/12/05 07:58:50;;;;;;;4.90;4.32;;;7.60;99.90;;;;;;4971923;28;20335;-76
2020/12/05 08:01:30;;;;;;;5.80;5.30;;;7.60;99.90;;;;;;4992938;28;20197;-76
2020/12/05 08:04:18;;;;;;;5.50;4.25;;;7.60;99.90;;;;;;4993624;28;20179;-77
2020/12/05 08:07:03;;;;;;;4.47;4.07;;;7.60;99.90;;;;;;4992900;28;20287;-77
2020/12/05 08:09:34;;;;;;;4.72;3.75;;;7.60;99.90;;;;;;5025646;28;20259;-77
2020/12/05 08:12:02;;;;;;;4.88;4.40;;;7.70;99.90;;;;;;5004074;28;20180;-77
2020/12/05 08:14:31;;;;;;;7.65;5.25;;;7.70;99.90;;;;;;4992179;28;20221;-77
2020/12/05 08:17:02;;;;;;;4.85;4.32;;;7.80;99.90;;;;;;4976681;28;20195;-77
2020/12/05 08:19:29;;;;;;;4.50;4.10;;;7.80;99.90;;;;;;4992509;28;20179;-77
2020/12/05 08:21:59;;;;;;;6.80;5.70;;;7.90;99.90;;;;;;5023589;28;20855;-77
2020/12/05 08:24:29;;;;;;;6.93;4.80;;;7.90;99.90;;;;;;5022940;28;20190;-76
2020/12/05 08:26:58;;;;;;;6.00;4.93;;;8.00;99.90;;;;;;4988205;28;20192;-77
2020/12/05 08:29:28;;;;;;;6.50;5.57;;;8.10;99.90;;;;;;5004813;28;20665;-76
2020/12/05 08:31:57;;;;;;;5.43;4.70;;;8.10;99.90;;;;;;5005310;28;20186;-76
2020/12/05 08:34:32;;;;;;;5.50;4.82;;;8.20;99.90;;;;;;5004740;28;20351;-76
2020/12/05 08:37:02;;;;;;;5.72;5.20;;;8.20;99.90;;;;;;5004331;28;20273;-76
2020/12/05 08:39:32;;;;;;;6.53;5.47;;;8.30;99.90;;;;;;5004937;28;20172;-77
2020/12/05 08:42:00;;;;;;;6.55;5.25;;;8.30;99.90;;;;;;5004965;28;20168;-77
2020/12/05 08:44:33;;;;;;;5.75;4.97;;;8.40;99.90;;;;;;4971964;28;20691;-76
2020/12/05 08:47:15;;;;;;;5.63;5.13;;;8.40;99.90;;;;;;4971827;28;20206;-77
2020/12/05 08:49:45;;;;;;;5.93;5.32;;;8.50;99.90;;;;;;5002934;28;20722;-77
2020/12/05 08:52:14;;;;;;;6.97;5.28;;;8.50;99.90;;;;;;5003272;28;21125;-76
2020/12/05 08:54:47;;;;;;;6.38;5.40;;;8.50;99.90;;;;;;4997299;28;20208;-77
2020/12/05 08:57:17;;;;;;;5.75;4.75;;;8.60;99.90;;;;;;4953539;28;20176;-77
2020/12/05 08:59:47;;;;;;;4.60;4.10;;;8.70;99.90;;;;;;4975394;28;20180;-77
2020/12/05 09:02:17;;;;;;;8.05;4.57;;;8.70;99.90;;;;;;4951191;28;20184;-76
2020/12/05 09:04:46;;;;;;;5.20;4.72;;;8.80;99.90;;;;;;4974159;28;20687;-77
2020/12/05 09:07:20;;;;;;;6.60;5.10;;;8.80;99.90;;;;;;4936414;28;20193;-76
2020/12/05 09:09:47;;;;;;;4.93;4.45;;;8.90;99.90;;;;;;4922965;28;20179;-76
2020/12/05 09:12:16;;;;;;;4.03;3.60;;;9.00;99.90;;;;;;4922786;28;20263;-77
2020/12/05 09:14:47;;;;;;;5.75;5.25;;;9.00;99.90;;;;;;4922004;28;20734;-76
2020/12/05 09:17:30;;;;;;;4.70;4.30;;;9.10;99.90;;;;;;4938288;28;20175;-76
2020/12/05 09:20:15;;;;;;;4.70;3.70;;;9.10;99.90;;;;;;4938562;28;20207;-76
2020/12/05 09:22:53;;;;;;;3.53;3.20;;;9.20;99.90;;;;;;4922523;28;20175;-76
2020/12/05 09:25:36;;;;;;;4.50;2.80;;;9.20;99.90;;;;;;4922811;28;20203;-76
2020/12/05 09:28:16;;;;;;;2.33;1.67;;;9.20;99.90;;;;;;4922187;28;20180;-77
2020/12/05 09:30:43;;;;;;;2.42;1.90;;;9.10;99.90;;;;;;4922397;28;20757;-78
2020/12/05 09:33:11;;;;;;;2.10;1.67;;;9.10;99.90;;;;;;4954261;28;20322;-77
2020/12/05 09:35:38;;;;;;;2.15;1.70;;;9.00;99.90;;;;;;4926994;28;20218;-77
2020/12/05 09:38:04;;;;;;;3.53;1.35;;;9.00;99.90;;;;;;4938948;28;20198;-76
2020/12/05 09:40:31;;;;;;;1.80;1.30;;;9.00;99.90;;;;;;4922561;28;20171;-77
2020/12/05 09:42:58;;;;;;;1.40;1.13;;;9.00;99.90;;;;;;4939044;28;20537;-77
2020/12/05 09:45:24;;;;;;;1.60;1.00;;;9.00;99.90;;;;;;4922688;28;20199;-77
2020/12/05 09:47:51;;;;;;;2.50;1.00;;;9.00;99.90;;;;;;4938132;28;20168;-76
2020/12/05 09:50:17;;;;;;;1.30;1.00;;;9.00;99.90;;;;;;4954182;28;20191;-77
2020/12/05 09:52:43;;;;;;;1.60;1.00;;;9.00;99.90;;;;;;4938068;28;20176;-77
2020/12/05 09:55:10;;;;;;;1.30;0.90;;;9.00;99.90;;;;;;4954056;28;20642;-76
2020/12/05 09:57:36;;;;;;;1.30;0.88;;;9.10;99.90;;;;;;4922161;28;20184;-76
2020/12/05 10:00:08;;;;;;;2.13;1.33;;;9.10;99.90;;;;;;4938118;28;20172;-77
2020/12/05 10:02:35;;;;;;;1.23;0.90;;;9.10;99.90;;;;;;4922234;28;20176;-77
2020/12/05 10:05:01;;;;;;;1.70;0.93;;;9.10;99.90;;;;;;4922068;28;20191;-76
2020/12/05 10:07:26;;;;;;;1.33;0.80;;;9.10;99.90;;;;;;4937955;28;20176;-77
2020/12/05 10:09:52;;;;;;;1.70;0.93;;;9.20;99.90;;;;;;4937832;28;20825;-77
2020/12/05 10:12:18;;;;;;;1.17;0.63;;;9.30;99.90;;;;;;4958517;28;20168;-77
2020/12/05 10:14:44;;;;;;;1.30;0.70;;;9.30;99.90;;;;;;4954048;28;21243;-77
2020/12/05 10:17:10;;;;;;;1.30;0.80;;;9.30;99.90;;;;;;4941204;28;20899;-76
2020/12/05 10:19:36;;;;;;;2.50;0.80;;;9.40;99.90;;;;;;4957284;28;20650;-76
2020/12/05 10:22:02;;;;;;;1.17;0.60;;;9.30;99.90;;;;;;4925582;28;20575;-77
2020/12/05 10:24:27;;;;;;;1.13;0.70;;;9.30;99.90;;;;;;4957274;28;20575;-76
2020/12/05 10:26:54;;;;;;;1.80;0.90;;;9.40;99.90;;;;;;4941175;28;20611;-77
2020/12/05 10:29:21;;;;;;;1.70;0.85;;;9.30;99.90;;;;;;4957142;28;21163;-77
2020/12/05 10:31:48;;;;;;;1.33;0.70;;;9.40;99.90;;;;;;4941142;28;20187;-76
2020/12/05 10:34:15;;;;;;;1.45;0.70;;;9.30;99.90;;;;;;4957418;28;20202;-76
2020/12/05 10:36:42;;;;;;;1.15;0.70;;;9.40;99.90;;;;;;4925982;28;20247;-75
2020/12/05 10:39:10;;;;;;;1.48;0.85;;;9.40;99.90;;;;;;4940804;28;20526;-76
2020/12/05 10:41:36;;;;;;;2.00;0.80;;;9.40;99.90;;;;;;4925258;28;20554;-76
2020/12/05 10:44:07;;;;;;;1.95;0.70;;;9.40;99.90;;;;;;4925102;28;20347;-77
2020/12/05 10:46:38;;;;;;;1.20;0.70;;;9.40;99.90;;;;;;4925065;28;20195;-76
2020/12/05 10:49:04;;;;;;;1.60;1.02;;;9.30;99.90;;;;;;4960254;28;20171;-76
2020/12/05 10:51:30;;;;;;;1.10;0.57;;;9.30;99.90;;;;;;4926389;28;20539;-76
2020/12/05 10:53:56;;;;;;;1.08;0.65;;;9.40;99.90;;;;;;4925111;28;20203;-76
2020/12/05 10:56:26;;;;;;;1.00;0.60;;;9.40;99.90;;;;;;4924996;28;20282;-76
2020/12/05 10:58:52;;;;;;;2.05;0.70;;;9.40;99.90;;;;;;4940518;28;20744;-76
2020/12/05 11:01:19;;;;;;;1.15;0.70;;;9.40;99.90;;;;;;4923562;28;20183;-76
2020/12/05 11:03:45;;;;;;;1.10;0.60;;;9.40;99.90;;;;;;4956620;28;20171;-76
2020/12/05 11:06:11;;;;;;;1.63;0.60;;;9.40;99.90;;;;;;4940527;28;20218;-76
2020/12/05 11:08:44;;;;;;;1.85;0.70;;;9.40;99.90;;;;;;4941017;28;20172;-77
2020/12/05 11:11:10;;;;;;;1.17;0.68;;;9.40;99.90;;;;;;4933271;28;20219;-76
2020/12/05 11:13:36;;;;;;;1.60;0.70;;;9.40;99.90;;;;;;4958217;28;20215;-76
2020/12/05 11:16:02;;;;;;;1.42;0.60;;;9.40;99.90;;;;;;4950425;28;20641;-76
2020/12/05 11:18:29;;;;;;;1.00;0.60;;;9.50;99.90;;;;;;4930789;28;20573;-77
2020/12/05 11:20:59;;;;;;;1.15;0.80;;;9.50;99.90;;;;;;4939721;28;20179;-78
2020/12/05 11:23:25;;;;;;;1.38;0.80;;;9.50;99.90;;;;;;4924426;28;20230;-78
2020/12/05 11:25:52;;;;;;;1.38;0.65;;;9.60;99.90;;;;;;4941137;28;20187;-78
2020/12/05 11:28:20;;;;;;;2.75;0.70;;;9.60;99.90;;;;;;4923984;28;20172;-78
2020/12/05 11:30:48;;;;;;;1.10;0.70;;;9.60;99.90;;;;;;4924319;28;20259;-78
2020/12/05 11:33:14;;;;;;;1.90;0.90;;;9.60;99.90;;;;;;4924107;28;20171;-78
2020/12/05 11:35:41;;;;;;;1.50;0.70;;;9.60;99.90;;;;;;4924054;28;20350;-78
2020/12/05 11:38:07;;;;;;;1.40;0.70;;;9.60;99.90;;;;;;4923923;28;20714;-78
2020/12/05 11:40:33;;;;;;;1.30;0.70;;;9.70;99.90;;;;;;4923827;28;20267;-78
2020/12/05 11:42:59;;;;;;;1.23;0.70;;;9.60;99.90;;;;;;4924130;28;20568;-77
2020/12/05 11:45:25;;;;;;;1.33;0.70;;;9.60;99.90;;;;;;4925598;28;21219;-77
2020/12/05 11:47:52;;;;;;;2.25;1.00;;;9.70;99.90;;;;;;4921271;28;20264;-77
2020/12/05 11:50:18;;;;;;;1.13;0.70;;;9.60;99.90;;;;;;4953419;29;20207;-77
2020/12/05 11:52:44;;;;;;;1.77;0.80;;;9.70;99.90;;;;;;4968409;28;20949;-77
2020/12/05 11:58:54;;;;;;;1.52;0.80;;;9.60;99.90;;;;;;4936244;29;20600;-77
2020/12/05 12:01:19;;;;;;;2.30;0.80;;;9.70;99.90;;;;;;4953811;29;20535;-77
2020/12/05 12:03:45;;;;;;;1.30;0.70;;;9.70;99.90;;;;;;4957206;29;20683;-77
2020/12/05 12:06:15;;;;;;;1.30;0.90;;;9.60;99.90;;;;;;4953758;29;20620;-79
2020/12/05 12:08:42;;;;;;;1.23;0.60;;;9.60;99.90;;;;;;4968219;28;21186;-79
2020/12/05 12:11:08;;;;;;;1.20;0.70;;;9.70;99.90;;;;;;4970277;28;20590;-81
2020/12/05 12:13:33;;;;;;;2.90;0.80;;;9.70;99.90;;;;;;4955676;28;20678;-79
2020/12/05 12:15:59;;;;;;;1.60;0.73;;;9.70;99.90;;;;;;4964548;28;20718;-80
2020/12/05 12:18:25;;;;;;;1.47;0.80;;;9.70;99.90;;;;;;4936326;29;20169;-79
2020/12/05 12:20:51;;;;;;;1.70;0.63;;;9.70;99.90;;;;;;4951141;29;20689;-80
2020/12/05 12:23:17;;;;;;;2.53;0.80;;;9.70;99.90;;;;;;4977699;28;20716;-79
2020/12/05 12:25:43;;;;;;;1.70;0.80;;;9.70;99.90;;;;;;4954776;29;20603;-79
2020/12/05 12:28:09;;;;;;;2.80;0.73;;;9.70;99.90;;;;;;4972446;29;20160;-79
2020/12/05 12:30:39;;;;;;;1.20;0.60;;;9.70;99.90;;;;;;4989038;28;20175;-79
2020/12/05 12:33:07;;;;;;;1.40;0.68;;;9.70;99.90;;;;;;4956936;29;20184;-79
2020/12/05 12:35:33;;;;;;;1.63;0.60;;;9.70;99.90;;;;;;4974767;29;20208;-80
2020/12/05 12:38:01;;;;;;;1.15;0.60;;;9.70;99.90;;;;;;4974392;28;20181;-79
2020/12/05 12:40:27;;;;;;;1.97;0.60;;;9.70;99.90;;;;;;4958598;29;20180;-80
2020/12/05 12:42:53;;;;;;;1.40;0.70;;;9.70;99.90;;;;;;4956994;29;20580;-79
2020/12/05 12:45:27;;;;;;;1.30;0.70;;;9.70;99.90;;;;;;4955083;29;20203;-79
2020/12/05 12:50:45;;;;;;;1.10;0.60;;;9.60;99.90;;;;;;4920368;29;20276;-79
2020/12/05 12:53:14;;;;;;;1.38;0.60;;;9.60;99.90;;;;;;4938263;29;20168;-78
2020/12/05 12:55:40;;;;;;;1.55;0.73;;;9.60;99.90;;;;;;4954460;29;20200;-78
2020/12/05 12:58:26;;;;;;;1.50;0.60;;;9.50;99.90;;;;;;4968382;28;20248;-80
2020/12/05 13:00:52;;;;;;;1.00;0.50;;;9.50;99.90;;;;;;4953453;29;20179;-80
2020/12/05 13:03:18;;;;;;;1.15;0.70;;;9.50;99.90;;;;;;4968118;28;20200;-80
2020/12/05 13:05:44;;;;;;;1.30;0.70;;;9.50;99.90;;;;;;4935579;29;20238;-79
2020/12/05 13:08:10;;;;;;;1.00;0.50;;;9.40;99.90;;;;;;4952578;29;20579;-79
2020/12/05 13:10:36;;;;;;;1.40;0.50;;;9.40;99.90;;;;;;4947440;28;20745;-80
2020/12/05 13:13:01;;;;;;;1.67;0.60;;;9.50;99.90;;;;;;4954692;28;20571;-81
2020/12/05 13:15:28;;;;;;;1.50;0.60;;;9.50;99.90;;;;;;4954543;28;20925;-78
2020/12/05 13:17:59;;;;;;;1.23;0.52;;;9.50;99.90;;;;;;4976237;28;20179;-80
2020/12/05 13:20:27;;;;;;;1.90;0.80;;;9.50;99.90;;;;;;4941921;29;20727;-79
2020/12/05 13:23:21;;;;;;;1.40;0.60;;;9.50;99.90;;;;;;4967206;28;20176;-80
2020/12/05 13:25:48;;;;;;;1.00;0.50;;;9.40;99.60;;;;;;4952275;29;20184;-78
2020/12/05 13:28:14;;;;;;;1.10;0.60;;;9.50;99.90;;;;;;4935048;29;20191;-79
2020/12/05 13:30:40;;;;;;;1.23;0.60;;;9.50;99.90;;;;;;4951107;29;20169;-79
2020/12/05 13:33:05;;;;;;;1.10;0.60;;;9.50;99.90;;;;;;4956407;28;20579;-80
2020/12/05 13:35:31;;;;;;;1.43;0.60;;;9.60;99.90;;;;;;4954414;28;21205;-79
2020/12/05 13:37:57;;;;;;;1.77;0.63;;;9.60;99.90;;;;;;4953886;28;20174;-79
2020/12/05 13:40:23;;;;;;;1.20;0.67;;;9.60;99.90;;;;;;4971588;28;20304;-79
2020/12/05 13:42:50;;;;;;;1.63;1.02;;;9.60;99.90;;;;;;4953728;28;20255;-79
2020/12/05 13:45:16;;;;;;;1.07;0.60;;;9.60;99.90;;;;;;4970946;28;20272;-80
2020/12/05 13:47:42;;;;;;;3.27;0.70;;;9.70;99.90;;;;;;4970970;28;20578;-79
2020/12/05 13:50:08;;;;;;;2.40;2.05;;;9.60;99.90;;;;;;4938297;28;20176;-79
2020/12/05 13:52:34;;;;;;;2.07;0.60;;;9.60;99.90;;;;;;4975265;28;20172;-79
2020/12/05 13:55:00;;;;;;;1.53;0.70;;;9.60;99.90;;;;;;4979369;28;20657;-80
2020/12/05 13:57:27;;;;;;;1.13;0.65;;;9.60;99.90;;;;;;4976061;28;20164;-79
2020/12/05 14:00:25;;;;;;;1.30;0.70;;;9.60;99.90;;;;;;4964146;28;20180;-81
2020/12/05 14:03:32;;;;;;;1.00;0.60;;;9.60;99.90;;;;;;4930122;28;20552;-80
2020/12/05 14:06:18;;;;;;;1.33;0.70;;;9.60;99.90;;;;;;4943249;28;20283;-79
2020/12/05 14:09:39;;;;;;;1.30;0.70;;;9.70;99.90;;;;;;4985631;28;20184;-80
2020/12/05 14:12:35;;;;;;;1.33;0.70;;;9.60;99.90;;;;;;4941742;29;20191;-79
2020/12/05 14:15:03;;;;;;;1.10;0.70;;;9.70;99.90;;;;;;4970740;28;20208;-79
2020/12/05 14:17:29;;;;;;;1.30;0.70;;;9.70;99.90;;;;;;4954310;28;20207;-79
2020/12/05 14:19:56;;;;;;;1.77;0.93;;;9.70;99.90;;;;;;4954418;29;20178;-79
2020/12/05 14:22:22;;;;;;;1.20;0.70;;;9.70;99.90;;;;;;4954260;28;20176;-79
2020/12/05 14:24:51;;;;;;;1.40;0.90;;;9.70;99.90;;;;;;4975708;28;20183;-80
2020/12/05 14:27:20;;;;;;;1.33;0.70;;;9.60;99.90;;;;;;4973199;28;20336;-80
2020/12/05 14:29:46;;;;;;;1.00;0.50;;;9.60;99.90;;;;;;4989981;28;20200;-80
2020/12/05 14:32:11;;;;;;;1.37;0.70;;;9.60;99.90;;;;;;4977634;28;20192;-80
2020/12/05 14:34:38;;;;;;;1.50;0.70;;;9.60;99.90;;;;;;4974538;28;20204;-79
2020/12/05 14:37:04;;;;;;;1.20;0.70;;;9.60;99.90;;;;;;4989284;28;20598;-79
2020/12/05 14:39:29;;;;;;;1.47;1.00;;;9.60;99.90;;;;;;4989472;28;20179;-79
2020/12/05 14:41:55;;;;;;;1.97;0.80;;;9.50;99.90;;;;;;4973065;28;20175;-79
2020/12/05 14:44:21;;;;;;;1.00;0.60;;;9.50;99.90;;;;;;4973045;28;20585;-79
2020/12/05 14:46:50;;;;;;;1.90;0.80;;;9.50;99.90;;;;;;4989099;28;20531;-79
2020/12/05 14:49:16;;;;;;;1.60;0.70;;;9.50;99.90;;;;;;4988858;28;20577;-79
2020/12/05 14:51:43;;;;;;;1.90;1.27;;;9.40;99.90;;;;;;4972725;28;20219;-79
2020/12/05 14:54:10;;;;;;;2.80;1.20;;;9.40;99.90;;;;;;5005173;28;20207;-79
2020/12/05 14:56:36;;;;;;;2.03;1.60;;;9.30;99.90;;;;;;4988878;28;20200;-79
2020/12/05 14:59:02;;;;;;;1.52;0.90;;;9.30;99.90;;;;;;4972562;28;20221;-79
2020/12/05 15:01:28;;;;;;;2.33;0.93;;;9.30;99.90;;;;;;5005141;28;20530;-79
2020/12/05 15:03:54;;;;;;;2.28;0.90;;;9.20;99.90;;;;;;5005169;28;20179;-79
2020/12/05 15:06:20;;;;;;;3.50;1.00;;;9.20;99.90;;;;;;4972310;28;20302;-80
2020/12/05 15:08:46;;;;;;;2.20;1.10;;;9.10;99.90;;;;;;4988570;28;20594;-80
2020/12/05 15:11:12;;;;;;;2.35;1.67;;;9.10;99.90;;;;;;4977787;28;20187;-79
2020/12/05 15:13:38;;;;;;;2.40;0.80;;;9.00;99.90;;;;;;4972431;28;20599;-79